createdAt,value
2023-05-23T00:01:58.978Z,99405.25
2023-05-23T00:04:27.421Z,99406.13
2023-05-23T00:06:55.042Z,99399.78
2023-05-23T00:09:22.701Z,99403.38
2023-05-23T00:11:50.416Z,99400.88
2023-05-23T00:14:18.443Z,99400.88
2023-05-23T00:16:46.425Z,99399.22
2023-05-23T00:19:17.367Z,99393.78
2023-05-23T00:21:49.772Z,99396.75
2023-05-23T00:24:18.767Z,99398.66
2023-05-23T00:26:46.884Z,99397.59
2023-05-23T00:29:18.481Z,99398.41
2023-05-23T00:31:46.811Z,99394.84
2023-05-23T00:34:18.019Z,99390.47
2023-05-23T00:36:48.033Z,99397.81
2023-05-23T00:39:21.920Z,99395.06
2023-05-23T00:41:52.277Z,99397.81
2023-05-23T00:44:21.395Z,99396.16
2023-05-23T00:46:55.478Z,99404.34
2023-05-23T00:49:23.741Z,99401.63
2023-05-23T00:51:52.135Z,99402.69
2023-05-23T00:54:23.987Z,99401.06
2023-05-23T00:56:51.763Z,99400.22
2023-05-23T00:59:21.300Z,99403.78
2023-05-23T01:01:49.667Z,99395.59
2023-05-23T01:04:20.026Z,99400.22
2023-05-23T01:06:49.226Z,99401.06
2023-05-23T01:09:17.262Z,99397.50
2023-05-23T01:12:18.696Z,99401.31
2023-05-23T01:15:15.622Z,99394.78
2023-05-23T01:17:56.086Z,99392.78
2023-05-23T01:20:30.396Z,99384.34
2023-05-23T01:23:01.176Z,99388.97
2023-05-23T01:25:59.474Z,99389.22
2023-05-23T01:28:36.431Z,99387.31
2023-05-23T01:31:04.501Z,99379.34
2023-05-23T01:33:32.278Z,99383.16
2023-05-23T01:36:02.040Z,99372.25
2023-05-23T01:38:29.644Z,99380.66
2023-05-23T01:40:56.955Z,99375.41
2023-05-23T01:43:24.725Z,99368.44
2023-05-23T01:45:54.123Z,99369.75
2023-05-23T01:48:21.658Z,99370.00
2023-05-23T01:50:49.158Z,99372.75
2023-05-23T01:53:19.618Z,99377.13
2023-05-23T01:55:47.767Z,99378.19
2023-05-23T01:58:15.218Z,99368.09
2023-05-23T02:00:43.041Z,99368.91
2023-05-23T02:03:11.817Z,99369.75
2023-05-23T02:05:39.793Z,99365.38
2023-05-23T02:08:07.698Z,99368.91
2023-05-23T02:10:38.628Z,99358.22
2023-05-23T02:13:06.048Z,99360.97
2023-05-23T02:15:33.544Z,99356.59
2023-05-23T02:18:03.257Z,99362.88
2023-05-23T02:20:31.171Z,99363.69
2023-05-23T02:22:58.780Z,99360.37
2023-05-23T02:25:26.622Z,99364.28
2023-05-23T02:27:54.055Z,99360.13
2023-05-23T02:30:22.380Z,99356.03
2023-05-23T02:32:50.225Z,99362.31
2023-05-23T02:35:17.657Z,99354.13
2023-05-23T02:37:45.491Z,99357.66
2023-05-23T02:40:12.998Z,99361.22
2023-05-23T02:42:40.492Z,99351.38
2023-05-23T02:45:08.902Z,99356.03
2023-05-23T02:47:36.471Z,99350.78
2023-05-23T02:50:04.051Z,99349.75
2023-05-23T02:52:32.910Z,99353.50
2023-05-23T02:55:00.578Z,99353.50
2023-05-23T02:57:28.287Z,99348.06
2023-05-23T02:59:56.327Z,99347.00
2023-05-23T03:02:23.832Z,99345.31
2023-05-23T03:04:51.445Z,99347.22
2023-05-23T03:07:27.410Z,99342.59
2023-05-23T03:09:55.586Z,99347.22
2023-05-23T03:12:23.463Z,99347.22
2023-05-23T03:14:51.018Z,99342.84
2023-05-23T03:17:18.636Z,99351.03
2023-05-23T03:19:46.507Z,99349.12
2023-05-23T03:22:14.165Z,99351.03
2023-05-23T03:24:43.228Z,99358.41
2023-05-23T03:27:11.900Z,99358.41
2023-05-23T03:29:39.755Z,99355.69
2023-05-23T03:32:07.565Z,99354.03
2023-05-23T03:34:36.672Z,99352.13
2023-05-23T03:37:04.363Z,99346.66
2023-05-23T03:39:32.099Z,99349.41
2023-05-23T03:42:00.013Z,99345.84
2023-05-23T03:44:28.226Z,99345.03
2023-05-23T03:46:55.835Z,99342.28
2023-05-23T03:49:23.719Z,99345.84
2023-05-23T03:51:51.605Z,99344.19
2023-05-23T03:54:19.229Z,99355.13
2023-05-23T03:56:47.192Z,99346.94
2023-05-23T03:59:15.951Z,99349.66
2023-05-23T04:01:43.682Z,99351.53
2023-05-23T04:04:11.670Z,99351.31
2023-05-23T04:06:39.649Z,99355.69
2023-05-23T04:09:07.225Z,99348.31
2023-05-23T04:11:35.657Z,99349.12
2023-05-23T04:14:04.191Z,99348.06
2023-05-23T04:16:33.454Z,99345.31
2023-05-23T04:19:05.473Z,99352.47
2023-05-23T04:21:33.720Z,99345.91
2023-05-23T04:24:02.172Z,99344.84
2023-05-23T04:26:29.740Z,99345.66
2023-05-23T04:28:57.353Z,99349.22
2023-05-23T04:31:25.454Z,99352.78
2023-05-23T04:33:53.042Z,99348.16
2023-05-23T04:36:20.697Z,99342.72
2023-05-23T04:38:49.361Z,99340.81
2023-05-23T04:41:16.934Z,99349.81
2023-05-23T04:43:46.143Z,99353.63
2023-05-23T04:46:14.152Z,99350.63
2023-05-23T04:48:42.820Z,99350.91
2023-05-23T04:51:11.518Z,99355.28
2023-05-23T04:53:41.311Z,99349.81
2023-05-23T04:56:09.968Z,99352.28
2023-05-23T04:58:37.814Z,99351.72
2023-05-23T05:01:06.601Z,99348.16
2023-05-23T05:03:34.130Z,99353.63
2023-05-23T05:06:02.274Z,99349.00
2023-05-23T05:08:30.058Z,99350.91
2023-05-23T05:10:58.036Z,99349.00
2023-05-23T05:13:25.694Z,99351.72
2023-05-23T05:15:53.665Z,99350.91
2023-05-23T05:18:21.141Z,99352.53
2023-05-23T05:20:48.642Z,99357.19
2023-05-23T05:23:16.686Z,99355.03
2023-05-23T05:25:44.146Z,99349.56
2023-05-23T05:28:12.269Z,99342.44
2023-05-23T05:30:40.579Z,99347.09
2023-05-23T05:33:08.896Z,99346.81
2023-05-23T05:35:38.367Z,99353.37
2023-05-23T05:38:07.009Z,99344.34
2023-05-23T05:40:34.899Z,99353.16
2023-05-23T05:43:02.634Z,99347.91
2023-05-23T05:45:30.563Z,99349.56
2023-05-23T05:47:58.821Z,99352.28
2023-05-23T05:50:27.320Z,99347.91
2023-05-23T05:52:55.117Z,99350.41
2023-05-23T05:55:23.244Z,99351.22
2023-05-23T05:57:51.851Z,99355.03
2023-05-23T06:00:20.626Z,99350.19
2023-05-23T06:02:52.261Z,99350.19
2023-05-23T06:05:20.399Z,99348.84
2023-05-23T06:07:48.892Z,99349.94
2023-05-23T06:10:16.741Z,99349.94
2023-05-23T06:12:45.789Z,99348.03
2023-05-23T06:15:14.752Z,99352.41
2023-05-23T06:17:43.009Z,99345.28
2023-05-23T06:20:11.472Z,99342.31
2023-05-23T06:22:40.082Z,99347.75
2023-05-23T06:25:08.215Z,99339.56
2023-05-23T06:27:35.682Z,99346.94
2023-05-23T06:30:06.674Z,99352.41
2023-05-23T06:32:34.452Z,99346.94
2023-05-23T06:35:01.990Z,99347.75
2023-05-23T06:37:29.720Z,99341.47
2023-05-23T06:39:57.488Z,99342.31
2023-05-23T06:42:25.018Z,99346.72
2023-05-23T06:44:53.516Z,99346.94
2023-05-23T06:47:21.513Z,99342.31
2023-05-23T06:49:49.346Z,99339.56
2023-05-23T06:52:16.997Z,99343.38
2023-05-23T06:54:44.939Z,99343.97
2023-05-23T06:57:12.749Z,99332.22
2023-05-23T06:59:40.645Z,99341.25
2023-05-23T07:02:08.594Z,99332.22
2023-05-23T07:04:37.412Z,99335.78
2023-05-23T07:07:05.460Z,99338.25
2023-05-23T07:09:33.543Z,99333.88
2023-05-23T07:12:02.598Z,99335.53
2023-05-23T07:14:30.319Z,99331.47
2023-05-23T07:16:58.429Z,99332.28
2023-05-23T07:19:26.084Z,99322.22
2023-05-23T07:21:53.809Z,99326.59
2023-05-23T07:24:25.089Z,99318.41
2023-05-23T07:26:55.483Z,99315.66
2023-05-23T07:29:23.545Z,99318.41
2023-05-23T07:31:51.548Z,99322.78
2023-05-23T07:34:19.010Z,99329.87
2023-05-23T07:36:47.639Z,99318.97
2023-05-23T07:39:15.634Z,99313.50
2023-05-23T07:41:43.135Z,99326.94
2023-05-23T07:44:11.085Z,99317.88
2023-05-23T07:46:38.638Z,99323.94
2023-05-23T07:49:06.280Z,99316.00
2023-05-23T07:51:34.676Z,99317.41
2023-05-23T07:54:02.175Z,99325.59
2023-05-23T07:56:29.726Z,99315.50
2023-05-23T07:58:57.482Z,99320.13
2023-05-23T08:01:25.601Z,99312.75
2023-05-23T08:03:53.842Z,99317.13
2023-05-23T08:06:21.676Z,99307.87
2023-05-23T08:08:49.428Z,99310.34
2023-05-23T08:11:17.238Z,99301.34
2023-05-23T08:13:45.164Z,99308.44
2023-05-23T08:16:15.642Z,99305.47
2023-05-23T08:18:43.506Z,99302.50
2023-05-23T08:21:11.032Z,99315.34
2023-05-23T08:23:38.464Z,99308.19
2023-05-23T08:26:06.212Z,99309.88
2023-05-23T08:28:34.848Z,99317.78
2023-05-23T08:31:02.457Z,99312.06
2023-05-23T08:33:30.792Z,99309.34
2023-05-23T08:35:58.617Z,99316.47
2023-05-23T08:38:27.241Z,99312.91
2023-05-23T08:40:57.220Z,99316.78
2023-05-23T08:43:25.169Z,99316.78
2023-05-23T08:45:52.960Z,99318.13
2023-05-23T08:48:21.407Z,99306.13
2023-05-23T08:50:49.292Z,99314.87
2023-05-23T08:53:20.697Z,99313.56
2023-05-23T08:55:51.198Z,99315.47
2023-05-23T08:58:20.716Z,99304.53
2023-05-23T09:00:48.857Z,99312.31
2023-05-23T09:03:16.881Z,99311.16
2023-05-23T09:05:44.878Z,99308.66
2023-05-23T09:08:13.269Z,99319.59
2023-05-23T09:10:42.245Z,99317.94
2023-05-23T09:13:10.566Z,99313.81
2023-05-23T09:15:39.119Z,99315.22
2023-05-23T09:18:06.728Z,99311.66
2023-05-23T09:20:34.720Z,99313.56
2023-05-23T09:23:05.881Z,99314.13
2023-05-23T09:25:33.458Z,99314.97
2023-05-23T09:28:01.515Z,99316.16
2023-05-23T09:30:29.661Z,99311.16
2023-05-23T09:33:00.713Z,99312.81
2023-05-23T09:35:31.024Z,99314.97
2023-05-23T09:38:01.723Z,99308.44
2023-05-23T09:40:31.245Z,99323.72
2023-05-23T09:43:05.680Z,99313.63
2023-05-23T09:45:33.767Z,99311.97
2023-05-23T09:48:01.774Z,99315.53
2023-05-23T09:50:33.462Z,99314.72
2023-05-23T09:53:02.903Z,99309.81
2023-05-23T09:55:30.849Z,99307.91
2023-05-23T09:57:59.210Z,99306.00
2023-05-23T10:00:26.942Z,99299.72
2023-05-23T10:03:12.637Z,99307.09
2023-05-23T10:05:53.362Z,99306.59
2023-05-23T10:08:41.350Z,99305.78
2023-05-23T10:11:14.861Z,99301.44
2023-05-23T10:13:46.848Z,99304.69
2023-05-23T10:16:39.017Z,99304.69
2023-05-23T10:19:27.151Z,99302.50
2023-05-23T10:22:05.091Z,99286.13
2023-05-23T10:24:33.044Z,99296.00
2023-05-23T10:27:00.573Z,99287.78
2023-05-23T10:29:28.011Z,99291.09
2023-05-23T10:31:56.462Z,99283.47
2023-05-23T10:34:35.754Z,99276.94
2023-05-23T10:37:05.127Z,99275.84
2023-05-23T10:40:10.906Z,99279.13
2023-05-23T10:43:00.160Z,99267.66
2023-05-23T10:45:27.965Z,99273.66
2023-05-23T10:47:55.912Z,99275.03
2023-05-23T10:50:37.273Z,99267.91
2023-05-23T10:53:05.685Z,99272.03
2023-05-23T10:55:34.183Z,99274.75
2023-05-23T10:58:13.053Z,99269.56
2023-05-23T11:00:55.067Z,99265.47
2023-05-23T11:03:33.847Z,99262.75
2023-05-23T11:06:02.789Z,99255.13
2023-05-23T11:08:47.856Z,99256.22
2023-05-23T11:11:16.924Z,99257.59
2023-05-23T11:13:53.394Z,99250.50
2023-05-23T11:16:39.923Z,99244.53
2023-05-23T11:19:20.036Z,99241.22
2023-05-23T11:22:01.971Z,99247.81
2023-05-23T11:24:48.855Z,99238.53
2023-05-23T11:27:16.617Z,99240.22
2023-05-23T11:29:44.142Z,99233.06
2023-05-23T11:32:16.818Z,99232.25
2023-05-23T11:34:45.422Z,99233.91
2023-05-23T11:37:12.976Z,99221.91
2023-05-23T11:39:40.702Z,99218.13
2023-05-23T11:42:08.447Z,99215.94
2023-05-23T11:44:36.032Z,99218.13
2023-05-23T11:47:04.675Z,99212.38
2023-05-23T11:49:41.455Z,99210.47
2023-05-23T11:52:09.354Z,99213.22
2023-05-23T11:54:37.178Z,99202.28
2023-05-23T11:57:04.983Z,99197.62
2023-05-23T11:59:32.418Z,99189.44
2023-05-23T12:02:02.693Z,99191.34
2023-05-23T12:04:30.534Z,99188.38
2023-05-23T12:06:58.036Z,99179.09
2023-05-23T12:09:25.709Z,99182.66
2023-05-23T12:11:53.488Z,99173.34
2023-05-23T12:14:21.019Z,99171.44
2023-05-23T12:16:48.650Z,99160.50
2023-05-23T12:19:19.499Z,99160.28
2023-05-23T12:21:48.027Z,99160.28
2023-05-23T12:24:19.721Z,99161.09
2023-05-23T12:26:54.905Z,99158.38
2023-05-23T12:29:28.731Z,99157.81
2023-05-23T12:31:58.058Z,99149.91
2023-05-23T12:34:26.514Z,99144.97
2023-05-23T12:37:10.240Z,99147.16
2023-05-23T12:39:45.783Z,99140.37
2023-05-23T12:42:13.436Z,99137.06
2023-05-23T12:44:41.622Z,99140.59
2023-05-23T12:47:10.452Z,99137.63
2023-05-23T12:49:41.198Z,99137.06
2023-05-23T12:52:08.929Z,99138.47
2023-05-23T12:54:36.524Z,99140.59
2023-05-23T12:57:04.030Z,99129.44
2023-05-23T12:59:31.745Z,99137.38
2023-05-23T13:02:00.510Z,99131.63
2023-05-23T13:04:30.243Z,99117.72
2023-05-23T13:06:59.666Z,99119.59
2023-05-23T13:09:27.140Z,99110.59
2023-05-23T13:11:54.842Z,99109.53
2023-05-23T13:14:22.498Z,99105.72
2023-05-23T13:16:49.997Z,99106.78
2023-05-23T13:19:17.700Z,99111.41
2023-05-23T13:21:47.348Z,99105.94
2023-05-23T13:24:16.239Z,99112.25
2023-05-23T13:26:43.828Z,99109.78
2023-05-23T13:29:11.723Z,99107.63
2023-05-23T13:31:39.265Z,99102.97
2023-05-23T13:34:07.021Z,99089.81
2023-05-23T13:36:35.861Z,99098.00
2023-05-23T13:39:05.703Z,99097.47
2023-05-23T13:41:33.154Z,99103.75
2023-05-23T13:44:00.864Z,99104.94
2023-05-23T13:46:28.368Z,99106.22
2023-05-23T13:48:55.938Z,99110.53
2023-05-23T13:51:23.689Z,99100.69
2023-05-23T13:53:51.287Z,99107.25
2023-05-23T13:56:18.873Z,99104.25
2023-05-23T13:58:46.822Z,99102.34
2023-05-23T14:01:14.267Z,99100.69
2023-05-23T14:03:42.027Z,99099.63
2023-05-23T14:06:09.516Z,99097.16
2023-05-23T14:08:37.004Z,99105.91
2023-05-23T14:11:04.739Z,99100.44
2023-05-23T14:13:32.898Z,99105.09
2023-05-23T14:16:00.406Z,99101.84
2023-05-23T14:18:28.184Z,99096.69
2023-05-23T14:20:55.692Z,99100.25
2023-05-23T14:23:23.094Z,99086.56
2023-05-23T14:25:50.888Z,99076.47
2023-05-23T14:28:18.363Z,99072.63
2023-05-23T14:30:46.352Z,99065.78
2023-05-23T14:33:15.138Z,99066.34
2023-05-23T14:35:43.514Z,99076.47
2023-05-23T14:38:11.202Z,99067.44
2023-05-23T14:40:38.998Z,99071.81
2023-05-23T14:43:06.520Z,99073.44
2023-05-23T14:45:34.027Z,99075.38
2023-05-23T14:48:02.443Z,99071.81
2023-05-23T14:50:29.937Z,99066.91
2023-05-23T14:52:57.490Z,99061.19
2023-05-23T14:55:25.785Z,99066.38
2023-05-23T14:57:53.271Z,99059.00
2023-05-23T15:00:20.867Z,99064.22
2023-05-23T15:02:48.656Z,99057.91
2023-05-23T15:05:17.132Z,99069.69
2023-05-23T15:07:45.557Z,99074.06
2023-05-23T15:10:13.338Z,99065.91
2023-05-23T15:12:41.118Z,99069.44
2023-05-23T15:15:08.913Z,99066.41
2023-05-23T15:17:36.920Z,99068.06
2023-05-23T15:20:06.963Z,99066.41
2023-05-23T15:22:39.363Z,99074.66
2023-05-23T15:25:10.671Z,99079.88
2023-05-23T15:27:38.293Z,99073.84
2023-05-23T15:30:06.343Z,99081.81
2023-05-23T15:32:34.140Z,99081.81
2023-05-23T15:35:01.601Z,99084.53
2023-05-23T15:37:29.431Z,99080.13
2023-05-23T15:39:57.185Z,99087.28
2023-05-23T15:42:24.721Z,99077.16
2023-05-23T15:44:52.213Z,99087.81
2023-05-23T15:47:20.933Z,99079.63
2023-05-23T15:49:48.439Z,99083.94
2023-05-23T15:52:15.966Z,99071.66
2023-05-23T15:54:43.696Z,99070.78
2023-05-23T15:57:11.148Z,99075.19
2023-05-23T15:59:39.185Z,99070.78
2023-05-23T16:02:07.122Z,99068.06
2023-05-23T16:04:36.166Z,99059.88
2023-05-23T16:07:04.002Z,99068.06
2023-05-23T16:09:31.523Z,99063.69
2023-05-23T16:11:59.210Z,99061.53
2023-05-23T16:14:26.822Z,99070.78
2023-05-23T16:16:54.346Z,99061.78
2023-05-23T16:19:22.123Z,99063.69
2023-05-23T16:21:50.368Z,99073.53
2023-05-23T16:24:19.386Z,99065.31
2023-05-23T16:26:47.090Z,99060.94
2023-05-23T16:29:14.590Z,99066.19
2023-05-23T16:31:42.101Z,99077.34
2023-05-23T16:34:09.825Z,99069.97
2023-05-23T16:36:37.684Z,99078.19
2023-05-23T16:39:05.157Z,99089.09
2023-05-23T16:41:32.906Z,99094.59
2023-05-23T16:44:00.360Z,99094.59
2023-05-23T16:46:27.887Z,99100.88
2023-05-23T16:48:56.130Z,99099.00
2023-05-23T16:51:23.607Z,99104.47
2023-05-23T16:53:51.187Z,99098.12
2023-05-23T16:56:18.940Z,99094.34
2023-05-23T16:58:46.714Z,99087.78
2023-05-23T17:01:16.417Z,99088.59
2023-05-23T17:03:44.145Z,99095.72
2023-05-23T17:06:11.641Z,99100.44
2023-05-23T17:08:39.093Z,99100.94
2023-05-23T17:11:06.852Z,99108.56
2023-05-23T17:13:34.833Z,99115.94
2023-05-23T17:16:02.457Z,99120.59
2023-05-23T17:18:30.222Z,99136.16
2023-05-23T17:20:57.995Z,99194.13
2023-05-23T17:23:25.812Z,99209.72
2023-05-23T17:25:54.206Z,99233.50
2023-05-23T17:28:22.453Z,99234.59
2023-05-23T17:30:51.691Z,99222.56
2023-05-23T17:33:19.647Z,99223.37
2023-05-23T17:35:47.103Z,99219.00
2023-05-23T17:38:14.682Z,99220.09
2023-05-23T17:40:42.598Z,99227.22
2023-05-23T17:43:10.277Z,99233.50
2023-05-23T17:45:37.783Z,99242.53
2023-05-23T17:48:05.781Z,99236.25
2023-05-23T17:50:33.262Z,99243.62
2023-05-23T17:53:02.764Z,99249.91
2023-05-23T17:55:31.817Z,99249.09
2023-05-23T17:57:59.244Z,99255.09
2023-05-23T18:00:26.823Z,99254.56
2023-05-23T18:02:54.739Z,99257.28
2023-05-23T18:05:23.696Z,99247.44
2023-05-23T18:07:51.148Z,99259.75
2023-05-23T18:10:19.566Z,99265.00
2023-05-23T18:12:47.599Z,99267.72
2023-05-23T18:15:15.094Z,99262.25
2023-05-23T18:17:42.929Z,99278.38
2023-05-23T18:20:11.082Z,99274.00
2023-05-23T18:22:38.586Z,99272.34
2023-05-23T18:25:06.816Z,99265.00
2023-05-23T18:27:34.336Z,99270.69
2023-05-23T18:30:01.917Z,99260.06
2023-05-23T18:32:31.477Z,99261.16
2023-05-23T18:34:59.004Z,99262.25
2023-05-23T18:37:26.482Z,99260.56
2023-05-23T18:39:58.058Z,99248.59
2023-05-23T18:42:25.582Z,99251.56
2023-05-23T18:44:53.131Z,99248.00
2023-05-23T18:47:21.203Z,99237.31
2023-05-23T18:49:49.768Z,99240.06
2023-05-23T18:52:17.274Z,99241.16
2023-05-23T18:54:45.209Z,99244.94
2023-05-23T18:57:12.796Z,99248.50
2023-05-23T18:59:40.489Z,99249.09
2023-05-23T19:02:08.532Z,99253.72
2023-05-23T19:04:36.184Z,99257.28
2023-05-23T19:07:03.724Z,99255.38
2023-05-23T19:09:31.705Z,99261.09
2023-05-23T19:11:59.296Z,99269.87
2023-05-23T19:14:26.872Z,99270.47
2023-05-23T19:16:55.033Z,99272.34
2023-05-23T19:19:22.582Z,99275.34
2023-05-23T19:21:51.048Z,99285.44
2023-05-23T19:24:18.806Z,99285.44
2023-05-23T19:26:46.603Z,99282.44
2023-05-23T19:29:14.057Z,99287.91
2023-05-23T19:31:42.244Z,99282.44
2023-05-23T19:34:09.778Z,99293.16
2023-05-23T19:36:37.350Z,99285.78
2023-05-23T19:39:05.137Z,99294.53
2023-05-23T19:41:32.867Z,99282.78
2023-05-23T19:44:03.725Z,99290.97
2023-05-23T19:46:32.997Z,99295.62
2023-05-23T19:49:00.969Z,99301.34
2023-05-23T19:51:28.544Z,99304.38
2023-05-23T19:53:56.465Z,99301.66
2023-05-23T19:56:25.227Z,99306.56
2023-05-23T19:58:52.733Z,99305.16
2023-05-23T20:01:20.468Z,99301.34
2023-05-23T20:03:48.575Z,99290.91
2023-05-23T20:06:16.820Z,99311.69
2023-05-23T20:08:44.412Z,99312.78
2023-05-23T20:11:12.615Z,99307.06
2023-05-23T20:13:40.463Z,99310.88
2023-05-23T20:16:08.318Z,99299.94
2023-05-23T20:18:36.411Z,99302.69
2023-05-23T20:21:05.344Z,99315.25
2023-05-23T20:23:33.009Z,99317.44
2023-05-23T20:26:01.100Z,99312.53
2023-05-23T20:28:28.569Z,99310.88
2023-05-23T20:30:56.054Z,99294.47
2023-05-23T20:33:24.071Z,99298.84
2023-05-23T20:35:51.570Z,99301.84
2023-05-23T20:38:20.011Z,99291.75
2023-05-23T20:40:50.830Z,99303.78
2023-05-23T20:43:20.395Z,99306.50
2023-05-23T20:45:48.401Z,99315.78
2023-05-23T20:48:16.218Z,99312.22
2023-05-23T20:50:44.356Z,99316.84
2023-05-23T20:53:12.255Z,99326.41
2023-05-23T20:55:39.875Z,99338.44
2023-05-23T20:58:07.673Z,99336.50
2023-05-23T21:00:35.594Z,99337.59
2023-05-23T21:03:03.339Z,99340.56
2023-05-23T21:05:30.889Z,99344.13
2023-05-23T21:07:58.773Z,99338.09
2023-05-23T21:10:26.469Z,99349.03
2023-05-23T21:12:53.934Z,99350.12
2023-05-23T21:15:21.794Z,99358.31
2023-05-23T21:17:51.314Z,99363.22
2023-05-23T21:20:22.225Z,99372.22
2023-05-23T21:22:50.132Z,99370.31
2023-05-23T21:25:17.636Z,99369.50
2023-05-23T21:27:45.155Z,99369.75
2023-05-23T21:30:14.131Z,99373.56
2023-05-23T21:32:43.062Z,99381.78
2023-05-23T21:35:10.508Z,99376.31
2023-05-23T21:37:38.196Z,99378.22
2023-05-23T21:40:06.348Z,99386.66
2023-05-23T21:42:33.791Z,99392.13
2023-05-23T21:45:01.566Z,99393.22
2023-05-23T21:47:31.365Z,99389.66
2023-05-23T21:49:58.788Z,99397.16
2023-05-23T21:52:26.646Z,99398.41
2023-05-23T21:54:54.148Z,99391.56
2023-05-23T21:57:21.621Z,99398.34
2023-05-23T21:59:49.372Z,99390.97
2023-05-23T22:02:17.350Z,99399.44
2023-05-23T22:04:46.153Z,99402.16
2023-05-23T22:07:13.613Z,99409.53
2023-05-23T22:09:41.107Z,99416.91
2023-05-23T22:12:09.066Z,99421.56
2023-05-23T22:14:36.553Z,99418.00
2023-05-23T22:17:04.452Z,99418.81
2023-05-23T22:19:32.275Z,99416.31
2023-05-23T22:21:59.749Z,99423.69
2023-05-23T22:24:27.196Z,99413.59
2023-05-23T22:26:54.921Z,99410.03
2023-05-23T22:29:22.361Z,99414.69
2023-05-23T22:31:49.905Z,99418.50
2023-05-23T22:34:17.637Z,99426.69
2023-05-23T22:36:45.070Z,99419.31
2023-05-23T22:39:12.963Z,99415.75
2023-05-23T22:41:40.836Z,99412.22
2023-05-23T22:44:08.281Z,99410.56
2023-05-23T22:46:36.537Z,99413.28
2023-05-23T22:49:04.311Z,99416.84
2023-05-23T22:51:34.034Z,99415.19
2023-05-23T22:54:01.874Z,99410.78
2023-05-23T22:56:29.576Z,99411.66
2023-05-23T22:58:57.021Z,99408.91
2023-05-23T23:01:24.507Z,99409.13
2023-05-23T23:03:52.412Z,99408.31
2023-05-23T23:06:21.053Z,99411.88
2023-05-23T23:08:49.732Z,99406.41
2023-05-23T23:11:17.520Z,99407.50
2023-05-23T23:13:44.981Z,99414.87
2023-05-23T23:16:13.155Z,99418.66
2023-05-23T23:18:41.266Z,99415.91
2023-05-23T23:21:08.712Z,99422.22
2023-05-23T23:23:36.684Z,99418.66
2023-05-23T23:26:04.558Z,99416.50
2023-05-23T23:28:32.059Z,99418.44
2023-05-23T23:30:59.494Z,99411.28
2023-05-23T23:33:27.234Z,99405.00
2023-05-23T23:35:54.690Z,99414.00
2023-05-23T23:38:22.152Z,99421.37
2023-05-23T23:40:49.926Z,99417.84
2023-05-23T23:43:17.443Z,99423.28
2023-05-23T23:45:45.459Z,99429.59
2023-05-23T23:48:13.953Z,99425.81
2023-05-23T23:50:41.689Z,99426.84
2023-05-23T23:53:09.401Z,99429.59
2023-05-23T23:55:37.159Z,99425.19
2023-05-23T23:58:04.607Z,99428.75
